createdAt,value
2022-08-04T00:00:07.672Z,100370.99
2022-08-04T00:03:11.606Z,100366.31
2022-08-04T00:05:55.382Z,100372.46
2022-08-04T00:08:45.659Z,100372.48
2022-08-04T00:11:24.190Z,100373.24
2022-08-04T00:14:03.559Z,100371.19
2022-08-04T00:16:40.237Z,100372.94
2022-08-04T00:19:18.167Z,100373.56
2022-08-04T00:21:57.268Z,100371.98
2022-08-04T00:24:31.212Z,100369.66
2022-08-04T00:27:04.128Z,100371.84
2022-08-04T00:29:36.812Z,100374.16
2022-08-04T00:32:09.936Z,100372.46
2022-08-04T00:34:42.558Z,100376.69
2022-08-04T00:37:15.995Z,100374.94
2022-08-04T00:39:50.364Z,100378.55
2022-08-04T00:42:49.346Z,100376.18
2022-08-04T00:46:17.124Z,100376.91
2022-08-04T00:49:12.062Z,100378.41
2022-08-04T00:52:32.787Z,100373.09
2022-08-04T00:55:03.305Z,100378.63
2022-08-04T00:58:52.097Z,100376.39
2022-08-04T01:01:51.239Z,100375.53
2022-08-04T01:04:42.391Z,100377.75
2022-08-04T01:07:33.065Z,100375.95
2022-08-04T01:10:17.358Z,100377.20
2022-08-04T01:13:15.603Z,100381.08
2022-08-04T01:16:00.529Z,100387.58
2022-08-04T01:18:45.852Z,100383.17
2022-08-04T01:21:48.468Z,100385.92
2022-08-04T01:24:31.141Z,100386.75
2022-08-04T01:27:08.164Z,100388.77
2022-08-04T01:29:48.836Z,100391.80
2022-08-04T01:32:29.461Z,100388.52
2022-08-04T01:35:05.485Z,100389.28
2022-08-04T01:37:51.077Z,100395.88
2022-08-04T01:40:27.911Z,100396.43
2022-08-04T01:43:00.296Z,100395.98
2022-08-04T01:45:34.858Z,100396.12
2022-08-04T01:48:08.580Z,100394.13
2022-08-04T01:50:44.945Z,100389.48
2022-08-04T01:53:18.259Z,100393.16
2022-08-04T01:55:54.704Z,100392.61
2022-08-04T01:58:31.075Z,100395.45
2022-08-04T02:01:08.469Z,100389.33
2022-08-04T02:04:18.536Z,100388.44
2022-08-04T02:06:42.092Z,100393.41
2022-08-04T02:09:24.192Z,100389.95
2022-08-04T02:12:15.744Z,100387.67
2022-08-04T02:14:57.624Z,100385.42
2022-08-04T02:17:33.679Z,100382.48
2022-08-04T02:20:13.747Z,100382.14
2022-08-04T02:22:54.204Z,100378.65
2022-08-04T02:25:29.052Z,100372.91
2022-08-04T02:28:23.234Z,100367.66
2022-08-04T02:31:04.934Z,100367.70
2022-08-04T02:33:40.531Z,100369.30
2022-08-04T02:36:18.188Z,100365.67
2022-08-04T02:38:58.058Z,100368.09
2022-08-04T02:41:32.163Z,100362.69
2022-08-04T02:44:06.045Z,100363.12
2022-08-04T02:46:40.161Z,100365.31
2022-08-04T02:49:13.513Z,100363.23
2022-08-04T02:51:46.985Z,100361.81
2022-08-04T02:54:32.571Z,100360.92
2022-08-04T02:57:09.987Z,100359.98
2022-08-04T02:59:52.039Z,100360.95
2022-08-04T03:02:30.479Z,100365.36
2022-08-04T03:05:09.033Z,100367.86
2022-08-04T03:08:06.988Z,100367.14
2022-08-04T03:10:58.623Z,100373.42
2022-08-04T03:14:09.569Z,100373.44
2022-08-04T03:17:14.563Z,100371.44
2022-08-04T03:20:25.314Z,100375.89
2022-08-04T03:23:49.673Z,100379.52
2022-08-04T03:26:55.588Z,100387.20
2022-08-04T03:30:10.007Z,100383.33
2022-08-04T03:33:16.965Z,100388.77
2022-08-04T03:36:20.083Z,100386.73
2022-08-04T03:39:27.812Z,100388.20
2022-08-04T03:42:29.034Z,100393.64
2022-08-04T03:45:34.278Z,100391.09
2022-08-04T03:48:33.821Z,100393.73
2022-08-04T03:51:37.429Z,100393.65
2022-08-04T03:54:48.472Z,100392.21
2022-08-04T03:57:47.337Z,100397.13
2022-08-04T04:00:21.025Z,100396.68
2022-08-04T04:03:28.194Z,100398.23
2022-08-04T04:06:44.056Z,100396.92
2022-08-04T04:09:57.792Z,100401.57
2022-08-04T04:13:04.431Z,100401.39
2022-08-04T04:16:16.943Z,100402.36
2022-08-04T04:19:22.574Z,100402.15
2022-08-04T04:22:19.137Z,100401.80
2022-08-04T04:25:04.681Z,100399.97
2022-08-04T04:27:52.877Z,100401.27
2022-08-04T04:30:31.723Z,100403.11
2022-08-04T04:33:18.416Z,100408.80
2022-08-04T04:36:02.745Z,100407.77
2022-08-04T04:38:52.325Z,100410.83
2022-08-04T04:41:54.782Z,100410.45
2022-08-04T04:44:50.050Z,100412.23
2022-08-04T04:48:07.036Z,100415.46
2022-08-04T04:50:37.600Z,100410.34
2022-08-04T04:53:19.492Z,100412.02
2022-08-04T04:55:57.921Z,100412.08
2022-08-04T04:58:32.969Z,100416.58
2022-08-04T05:01:41.469Z,100422.02
2022-08-04T05:04:30.565Z,100426.64
2022-08-04T05:07:24.099Z,100429.70
2022-08-04T05:10:08.975Z,100430.56
2022-08-04T05:14:37.971Z,100434.01
2022-08-04T05:16:18.637Z,100429.95
2022-08-04T05:19:00.028Z,100426.77
2022-08-04T05:21:52.561Z,100425.13
2022-08-04T05:24:26.271Z,100423.71
2022-08-04T05:27:03.177Z,100421.31
2022-08-04T05:29:41.014Z,100421.71
2022-08-04T05:32:16.172Z,100423.30
2022-08-04T05:34:55.167Z,100418.63
2022-08-04T05:37:30.323Z,100414.86
2022-08-04T05:40:06.472Z,100414.45
2022-08-04T05:42:41.646Z,100413.96
2022-08-04T05:45:14.973Z,100415.58
2022-08-04T05:47:47.909Z,100415.88
2022-08-04T05:50:21.729Z,100408.01
2022-08-04T05:52:59.921Z,100410.21
2022-08-04T05:55:57.541Z,100415.76
2022-08-04T05:58:28.193Z,100420.07
2022-08-04T06:01:02.264Z,100422.88
2022-08-04T06:03:35.558Z,100421.91
2022-08-04T06:06:09.540Z,100426.64
2022-08-04T06:08:42.268Z,100430.10
2022-08-04T06:11:15.738Z,100430.64
2022-08-04T06:13:55.785Z,100431.55
2022-08-04T06:16:32.868Z,100431.41
2022-08-04T06:19:59.045Z,100433.15
2022-08-04T06:22:07.486Z,100432.14
2022-08-04T06:24:41.475Z,100433.61
2022-08-04T06:27:14.494Z,100434.42
2022-08-04T06:29:50.725Z,100437.13
2022-08-04T06:32:35.690Z,100431.28
2022-08-04T06:35:12.202Z,100435.02
2022-08-04T06:37:45.711Z,100437.98
2022-08-04T06:40:30.822Z,100436.94
2022-08-04T06:43:07.314Z,100440.39
2022-08-04T06:45:41.519Z,100432.81
2022-08-04T06:48:17.742Z,100435.71
2022-08-04T06:51:24.428Z,100433.52
2022-08-04T06:53:47.051Z,100430.76
2022-08-04T06:56:21.067Z,100435.69
2022-08-04T06:58:54.870Z,100431.17
2022-08-04T07:01:29.101Z,100432.01
2022-08-04T07:04:02.122Z,100433.94
2022-08-04T07:06:35.209Z,100430.61
2022-08-04T07:09:09.581Z,100431.83
2022-08-04T07:11:44.398Z,100433.83
2022-08-04T07:14:19.044Z,100429.73
2022-08-04T07:16:53.124Z,100434.42
2022-08-04T07:19:25.749Z,100438.96
2022-08-04T07:22:06.449Z,100440.14
2022-08-04T07:24:55.830Z,100434.79
2022-08-04T07:27:47.573Z,100441.48
2022-08-04T07:30:24.903Z,100439.85
2022-08-04T07:32:57.690Z,100435.89
2022-08-04T07:36:05.027Z,100441.86
2022-08-04T07:38:27.455Z,100445.02
2022-08-04T07:41:03.963Z,100446.54
2022-08-04T07:43:37.528Z,100441.10
2022-08-04T07:46:12.093Z,100438.49
2022-08-04T07:48:44.540Z,100442.96
2022-08-04T07:51:17.310Z,100444.70
2022-08-04T07:53:54.851Z,100438.93
2022-08-04T07:56:29.299Z,100438.98
2022-08-04T07:59:02.806Z,100443.80
2022-08-04T08:01:36.101Z,100434.27
2022-08-04T08:04:11.705Z,100434.85
2022-08-04T08:06:43.612Z,100438.29
2022-08-04T08:09:20.586Z,100432.91
2022-08-04T08:12:38.442Z,100431.64
2022-08-04T08:14:47.568Z,100433.08
2022-08-04T08:17:20.315Z,100437.99
2022-08-04T08:19:52.773Z,100437.39
2022-08-04T08:22:25.220Z,100435.23
2022-08-04T08:24:57.482Z,100435.55
2022-08-04T08:27:30.001Z,100435.23
2022-08-04T08:30:02.401Z,100433.29
2022-08-04T08:32:35.585Z,100433.58
2022-08-04T08:35:09.418Z,100432.11
2022-08-04T08:37:49.628Z,100440.43
2022-08-04T08:40:40.462Z,100435.08
2022-08-04T08:44:04.443Z,100439.42
2022-08-04T08:46:50.422Z,100436.98
2022-08-04T08:50:04.985Z,100444.85
2022-08-04T08:53:02.487Z,100445.03
2022-08-04T08:55:44.456Z,100450.00
2022-08-04T08:58:31.001Z,100447.79
2022-08-04T09:01:24.040Z,100441.88
2022-08-04T09:04:22.815Z,100446.30
2022-08-04T09:07:14.025Z,100435.33
2022-08-04T09:09:54.676Z,100436.10
2022-08-04T09:12:34.701Z,100427.27
2022-08-04T09:15:15.170Z,100438.33
2022-08-04T09:17:53.318Z,100437.81
2022-08-04T09:20:32.748Z,100433.98
2022-08-04T09:23:14.772Z,100439.84
2022-08-04T09:25:52.685Z,100430.73
2022-08-04T09:28:52.159Z,100435.70
2022-08-04T09:31:25.581Z,100440.00
2022-08-04T09:34:05.959Z,100430.27
2022-08-04T09:36:48.807Z,100429.52
2022-08-04T09:39:30.667Z,100437.30
2022-08-04T09:42:15.290Z,100440.23
2022-08-04T09:45:05.810Z,100438.36
2022-08-04T09:47:48.125Z,100430.00
2022-08-04T09:50:31.721Z,100432.75
2022-08-04T09:53:32.039Z,100430.58
2022-08-04T09:56:16.014Z,100427.11
2022-08-04T09:58:58.566Z,100427.27
2022-08-04T10:01:32.728Z,100429.54
2022-08-04T10:04:10.063Z,100433.79
2022-08-04T10:07:00.105Z,100433.95
2022-08-04T10:09:59.804Z,100429.53
2022-08-04T10:12:40.112Z,100429.02
2022-08-04T10:15:18.575Z,100420.63
2022-08-04T10:18:11.021Z,100423.64
2022-08-04T10:21:15.593Z,100429.04
2022-08-04T10:24:10.976Z,100425.17
2022-08-04T10:26:57.190Z,100421.22
2022-08-04T10:29:32.076Z,100414.77
2022-08-04T10:32:11.488Z,100413.17
2022-08-04T10:34:56.024Z,100413.89
2022-08-04T10:37:58.983Z,100413.25
2022-08-04T10:40:37.977Z,100407.69
2022-08-04T10:43:32.524Z,100405.95
2022-08-04T10:46:09.907Z,100408.97
2022-08-04T10:48:51.680Z,100405.95
2022-08-04T10:51:29.349Z,100399.66
2022-08-04T10:54:04.689Z,100398.92
2022-08-04T10:56:43.037Z,100393.84
2022-08-04T10:59:21.530Z,100390.08
2022-08-04T11:02:02.761Z,100391.79
2022-08-04T11:04:47.849Z,100391.96
2022-08-04T11:07:21.138Z,100395.66
2022-08-04T11:09:54.559Z,100388.95
2022-08-04T11:12:29.346Z,100386.30
2022-08-04T11:15:07.542Z,100387.23
2022-08-04T11:17:43.149Z,100381.89
2022-08-04T11:20:37.682Z,100384.57
2022-08-04T11:23:13.015Z,100381.96
2022-08-04T11:25:54.177Z,100378.69
2022-08-04T11:28:38.916Z,100382.09
2022-08-04T11:31:15.920Z,100379.39
2022-08-04T11:33:53.636Z,100381.69
2022-08-04T11:36:35.824Z,100386.44
2022-08-04T11:39:12.779Z,100381.02
2022-08-04T11:41:57.999Z,100392.65
2022-08-04T11:44:36.270Z,100386.80
2022-08-04T11:47:20.612Z,100382.41
2022-08-04T11:50:02.792Z,100382.48
2022-08-04T11:52:39.479Z,100373.70
2022-08-04T11:55:12.520Z,100376.57
2022-08-04T11:57:45.814Z,100368.63
2022-08-04T12:00:29.729Z,100374.87
2022-08-04T12:03:28.419Z,100375.01
2022-08-04T12:06:15.444Z,100376.67
2022-08-04T12:09:10.409Z,100374.54
2022-08-04T12:11:52.995Z,100373.52
2022-08-04T12:14:45.093Z,100365.73
2022-08-04T12:17:23.816Z,100366.76
2022-08-04T12:20:04.950Z,100365.37
2022-08-04T12:22:56.745Z,100367.64
2022-08-04T12:25:36.023Z,100364.73
2022-08-04T12:28:12.991Z,100370.22
2022-08-04T12:30:59.776Z,100365.70
2022-08-04T12:34:04.190Z,100360.23
2022-08-04T12:36:39.217Z,100354.21
2022-08-04T12:39:18.125Z,100353.35
2022-08-04T12:41:59.646Z,100346.50
2022-08-04T12:44:39.344Z,100344.84
2022-08-04T12:47:27.776Z,100340.38
2022-08-04T12:50:05.559Z,100348.02
2022-08-04T12:53:06.909Z,100341.20
2022-08-04T12:55:39.974Z,100337.23
2022-08-04T12:58:42.406Z,100337.84
2022-08-04T13:02:07.411Z,100341.29
2022-08-04T13:04:17.074Z,100331.49
2022-08-04T13:06:58.231Z,100329.48
2022-08-04T13:09:34.381Z,100332.36
2022-08-04T13:12:14.308Z,100326.59
2022-08-04T13:14:50.535Z,100321.35
2022-08-04T13:17:27.988Z,100318.13
2022-08-04T13:20:02.088Z,100318.95
2022-08-04T13:22:35.653Z,100322.20
2022-08-04T13:26:44.161Z,100319.16
2022-08-04T13:28:17.441Z,100315.86
2022-08-04T13:30:56.942Z,100313.84
2022-08-04T13:33:35.367Z,100309.89
2022-08-04T13:36:08.900Z,100307.82
2022-08-04T13:38:52.834Z,100307.23
2022-08-04T13:41:30.947Z,100311.67
2022-08-04T13:44:18.534Z,100314.16
2022-08-04T13:46:54.482Z,100304.78
2022-08-04T13:49:42.736Z,100298.42
2022-08-04T13:52:18.745Z,100292.19
2022-08-04T13:54:53.558Z,100296.92
2022-08-04T13:57:31.608Z,100294.90
2022-08-04T14:00:07.779Z,100290.83
2022-08-04T14:02:46.144Z,100287.02
2022-08-04T14:05:27.858Z,100277.55
2022-08-04T14:08:10.016Z,100278.52
2022-08-04T14:10:42.534Z,100279.79
2022-08-04T14:13:14.681Z,100277.59
2022-08-04T14:16:01.408Z,100279.27
2022-08-04T14:18:36.284Z,100274.84
2022-08-04T14:21:11.893Z,100276.17
2022-08-04T14:23:51.049Z,100275.53
2022-08-04T14:26:32.769Z,100273.74
2022-08-04T14:29:26.547Z,100261.66
2022-08-04T14:32:14.144Z,100261.74
2022-08-04T14:34:48.475Z,100263.27
2022-08-04T14:37:23.210Z,100265.58
2022-08-04T14:40:08.919Z,100258.69
2022-08-04T14:42:55.856Z,100259.73
2022-08-04T14:45:34.357Z,100261.20
2022-08-04T14:48:11.126Z,100258.81
2022-08-04T14:50:45.111Z,100263.05
2022-08-04T14:53:20.038Z,100265.44
2022-08-04T14:55:54.600Z,100267.13
2022-08-04T14:58:35.157Z,100264.25
2022-08-04T15:01:13.002Z,100255.96
2022-08-04T15:03:50.487Z,100252.67
2022-08-04T15:06:28.545Z,100250.80
2022-08-04T15:09:02.484Z,100252.21
2022-08-04T15:11:37.896Z,100252.07
2022-08-04T15:14:09.636Z,100248.98
2022-08-04T15:17:01.972Z,100248.68
2022-08-04T15:19:34.122Z,100249.06
2022-08-04T15:22:06.790Z,100240.42
2022-08-04T15:24:39.397Z,100243.42
2022-08-04T15:27:13.820Z,100248.61
2022-08-04T15:29:59.251Z,100242.61
2022-08-04T15:32:35.972Z,100238.79
2022-08-04T15:35:13.852Z,100238.83
2022-08-04T15:37:55.993Z,100240.77
2022-08-04T15:40:33.407Z,100242.95
2022-08-04T15:43:24.782Z,100240.39
2022-08-04T15:46:37.241Z,100233.95
2022-08-04T15:48:53.298Z,100234.52
2022-08-04T15:51:34.360Z,100238.55
2022-08-04T15:54:27.861Z,100236.17
2022-08-04T15:57:05.048Z,100246.64
2022-08-04T16:00:12.873Z,100248.81
2022-08-04T16:02:47.319Z,100251.68
2022-08-04T16:05:39.587Z,100244.69
2022-08-04T16:08:21.055Z,100242.99
2022-08-04T16:10:53.787Z,100237.73
2022-08-04T16:13:27.044Z,100235.91
2022-08-04T16:16:03.753Z,100241.27
2022-08-04T16:18:46.252Z,100241.23
2022-08-04T16:21:23.831Z,100241.06
2022-08-04T16:24:13.904Z,100241.59
2022-08-04T16:26:55.137Z,100240.91
2022-08-04T16:29:30.307Z,100237.09
2022-08-04T16:32:23.428Z,100233.84
2022-08-04T16:35:04.316Z,100229.17
2022-08-04T16:37:39.105Z,100233.86
2022-08-04T16:40:36.562Z,100227.03
2022-08-04T16:43:13.494Z,100225.05
2022-08-04T16:45:55.324Z,100225.33
2022-08-04T16:48:29.370Z,100224.14
2022-08-04T16:51:06.779Z,100221.55
2022-08-04T16:54:04.125Z,100226.29
2022-08-04T16:56:35.845Z,100225.57
2022-08-04T16:59:13.852Z,100226.23
2022-08-04T17:01:51.996Z,100227.33
2022-08-04T17:04:31.625Z,100228.61
2022-08-04T17:07:06.315Z,100223.92
2022-08-04T17:09:38.628Z,100224.01
2022-08-04T17:12:11.727Z,100221.69
2022-08-04T17:14:47.772Z,100223.23
2022-08-04T17:17:25.607Z,100220.64
2022-08-04T17:20:17.898Z,100216.27
2022-08-04T17:22:50.046Z,100219.44
2022-08-04T17:25:22.123Z,100218.09
2022-08-04T17:28:28.501Z,100220.35
2022-08-04T17:31:03.201Z,100222.89
2022-08-04T17:33:54.695Z,100223.29
2022-08-04T17:36:30.156Z,100222.69
2022-08-04T17:39:17.058Z,100226.30
2022-08-04T17:41:50.065Z,100226.77
2022-08-04T17:44:22.351Z,100226.58
2022-08-04T17:46:54.786Z,100226.97
2022-08-04T17:49:28.685Z,100227.95
2022-08-04T17:52:05.862Z,100231.98
2022-08-04T17:54:41.141Z,100233.02
2022-08-04T17:57:21.661Z,100229.78
2022-08-04T18:00:00.037Z,100226.96
2022-08-04T18:02:35.102Z,100230.92
2022-08-04T18:05:11.695Z,100230.91
2022-08-04T18:08:38.513Z,100234.33
2022-08-04T18:10:55.439Z,100236.67
2022-08-04T18:13:29.295Z,100240.81
2022-08-04T18:16:05.887Z,100239.52
2022-08-04T18:18:48.993Z,100245.11
2022-08-04T18:21:22.911Z,100249.08
2022-08-04T18:23:55.277Z,100245.73
2022-08-04T18:26:33.096Z,100247.07
2022-08-04T18:29:05.810Z,100246.80
2022-08-04T18:31:39.497Z,100248.47
2022-08-04T18:34:14.352Z,100248.92
2022-08-04T18:36:57.279Z,100245.64
2022-08-04T18:40:17.300Z,100248.28
2022-08-04T18:42:23.713Z,100251.78
2022-08-04T18:44:58.376Z,100256.58
2022-08-04T18:47:32.796Z,100254.48
2022-08-04T18:53:17.040Z,100256.89
2022-08-04T18:55:58.034Z,100257.29
2022-08-04T18:58:30.613Z,100259.23
2022-08-04T19:01:02.680Z,100260.94
2022-08-04T19:03:49.404Z,100262.79
2022-08-04T19:06:27.502Z,100261.71
2022-08-04T19:08:59.768Z,100263.27
2022-08-04T19:11:38.307Z,100267.39
2022-08-04T19:14:25.710Z,100265.72
2022-08-04T19:16:58.385Z,100264.69
2022-08-04T19:19:47.383Z,100270.97
2022-08-04T19:22:35.629Z,100270.31
2022-08-04T19:25:10.077Z,100268.83
2022-08-04T19:27:42.285Z,100269.80
2022-08-04T19:30:15.271Z,100271.13
2022-08-04T19:32:49.746Z,100269.35
2022-08-04T19:35:22.274Z,100275.64
2022-08-04T19:37:57.922Z,100276.21
2022-08-04T19:40:34.188Z,100273.45
2022-08-04T19:43:14.474Z,100273.45
2022-08-04T19:45:47.885Z,100273.13
2022-08-04T19:48:20.381Z,100271.94
2022-08-04T19:50:52.888Z,100272.73
2022-08-04T19:53:36.944Z,100269.95
2022-08-04T19:56:10.490Z,100267.91
2022-08-04T19:58:48.192Z,100262.91
2022-08-04T20:01:33.448Z,100263.40
2022-08-04T20:04:13.256Z,100258.79
2022-08-04T20:06:45.935Z,100260.40
2022-08-04T20:09:25.406Z,100261.85
2022-08-04T20:11:59.900Z,100262.89
2022-08-04T20:14:33.455Z,100265.55
2022-08-04T20:17:10.339Z,100266.94
2022-08-04T20:19:51.331Z,100267.87
2022-08-04T20:22:51.770Z,100270.04
2022-08-04T20:25:27.237Z,100270.70
2022-08-04T20:28:09.424Z,100275.56
2022-08-04T20:30:58.021Z,100278.88
2022-08-04T20:33:30.251Z,100280.92
2022-08-04T20:36:05.237Z,100283.11
2022-08-04T20:38:38.994Z,100285.30
2022-08-04T20:41:11.256Z,100285.27
2022-08-04T20:43:46.619Z,100287.66
2022-08-04T20:46:29.330Z,100286.02
2022-08-04T20:49:02.029Z,100284.20
2022-08-04T20:51:40.193Z,100284.34
2022-08-04T20:54:16.498Z,100285.14
2022-08-04T20:56:55.531Z,100283.45
2022-08-04T20:59:29.170Z,100287.39
2022-08-04T21:02:01.399Z,100284.66
2022-08-04T21:04:48.522Z,100287.42
2022-08-04T21:07:22.195Z,100285.35
2022-08-04T21:09:55.071Z,100283.55
2022-08-04T21:12:29.109Z,100283.90
2022-08-04T21:15:13.957Z,100285.27
2022-08-04T21:17:59.455Z,100283.89
2022-08-04T21:23:28.897Z,100285.79
2022-08-04T21:26:06.779Z,100288.02
2022-08-04T21:28:43.319Z,100286.13
2022-08-04T21:31:22.146Z,100288.10
2022-08-04T21:33:54.559Z,100284.55
2022-08-04T21:36:27.411Z,100291.52
2022-08-04T21:39:00.070Z,100289.04
2022-08-04T21:41:32.329Z,100289.97
2022-08-04T21:44:04.808Z,100289.98
2022-08-04T21:46:44.572Z,100288.42
2022-08-04T21:49:16.875Z,100293.16
2022-08-04T21:51:59.646Z,100288.52
2022-08-04T21:54:33.570Z,100288.98
2022-08-04T21:57:06.228Z,100286.86
2022-08-04T21:59:45.147Z,100290.67
2022-08-04T22:02:18.523Z,100288.21
2022-08-04T22:04:52.783Z,100287.37
2022-08-04T22:07:25.181Z,100284.71
2022-08-04T22:10:18.657Z,100281.58
2022-08-04T22:13:07.326Z,100286.00
2022-08-04T22:16:03.917Z,100286.36
2022-08-04T22:18:31.994Z,100287.63
2022-08-04T22:24:00.577Z,100286.02
2022-08-04T22:26:34.636Z,100280.77
2022-08-04T22:29:07.040Z,100281.59
2022-08-04T22:31:55.680Z,100279.58
2022-08-04T22:34:30.482Z,100281.59
2022-08-04T22:37:12.320Z,100276.96
2022-08-04T22:39:56.954Z,100279.77
2022-08-04T22:42:29.238Z,100273.77
2022-08-04T22:45:03.773Z,100273.68
2022-08-04T22:47:40.193Z,100277.05
2022-08-04T22:50:27.557Z,100277.73
2022-08-04T22:52:59.954Z,100273.73
2022-08-04T22:56:06.739Z,100275.27
2022-08-04T22:58:28.634Z,100273.80
2022-08-04T23:01:01.195Z,100268.94
2022-08-04T23:03:38.541Z,100273.75
2022-08-04T23:06:12.865Z,100271.59
2022-08-04T23:08:48.392Z,100265.37
2022-08-04T23:11:21.086Z,100266.45
2022-08-04T23:13:53.120Z,100263.85
2022-08-04T23:16:25.322Z,100255.71
2022-08-04T23:19:00.342Z,100253.86
2022-08-04T23:21:47.313Z,100255.16
2022-08-04T23:24:20.390Z,100246.73
2022-08-04T23:26:52.664Z,100249.65
2022-08-04T23:29:24.902Z,100252.02
2022-08-04T23:32:00.464Z,100250.15
2022-08-04T23:34:32.840Z,100245.11
2022-08-04T23:37:04.908Z,100247.07
2022-08-04T23:40:03.798Z,100245.05
2022-08-04T23:42:29.064Z,100241.35
2022-08-04T23:45:01.357Z,100244.83
2022-08-04T23:48:16.240Z,100235.76
2022-08-04T23:50:25.663Z,100235.80
2022-08-04T23:52:58.370Z,100239.02
2022-08-04T23:55:32.217Z,100238.72
2022-08-04T23:58:19.114Z,100234.76
